Main page
METAR-TAF:

METAR-TAF

Airports :

Hawarden Airport

Hawarden, Wales

latitude: 53-10N, longitude: 002-59W, elevation: 10 m

Current weather observation

The report was made 21 minutes ago, at 08:50 UTC
Wind 9 kt from the Southwest
Temperature 17°C
Humidity 77%
Pressure 1025 hPa
Visibility 10 km or more
Few clouds at a height of 3200 ft

METAR: EGNR 210850Z 22009KT 9999 FEW032 17/13 Q1025

Time: 10:11 (09:11 UTC)

Forecast

The report was made 1 hour and 14 minutes ago, at 07:57 UTC
Forecast valid from 21 at 09 UTC to 21 at 18 UTC
Wind 5 kt from the South/Southeast
Visibility 10 km or more
Scattered clouds at a height of 2500 ft
Temporary
from 21 at 09 UTC to 21 at 18 UTC
Visibility: 6000 m
rain showers
Becoming
from 21 at 12 UTC to 21 at 15 UTC
Wind 12 kt from the West/Southwest

TAF: EGNR 210757Z 2109/2118 16005KT 9999 SCT025 TEMPO 2109/2118 6000 SHRA BECMG 2112/2115 24012KT

Weather observations and forecasts of more than 4000 airports (METAR and TAF reports).

The available stations are represented by yellow and red dots on the map.

Hover mouse over dot to see the name of the station.

Then click to see weather observations and forecasts.

To change the map : click on the green buttons with a black cross to zoom in, on the green button with a dash to zoom out, or on the green arrows for adjacent maps.


METAR-TAF: